Time;durP1;ratioP1;P1;durP2;ratioP2;P2;SDS_P1;SDS_P2;PMS_P1;PMS_P2;Temp;Humidity;BMP_temperature;BMP_pressure;BME280_temperature;BME280_humidity;BME280_pressure;Samples;Min_cycle;Max_cycle;Signal;HPM_P1;HPM_P2
2023/02/23 00:01:49;;;;;;;26.63;15.40;;;;;;;7.60;100.00;101234.44;4990195;28;20211;-68
2023/02/23 00:04:14;;;;;;;26.77;15.40;;;;;;;7.57;100.00;101234.31;4987000;28;20183;-68
2023/02/23 00:06:40;;;;;;;24.53;15.53;;;;;;;7.53;100.00;101230.81;4989691;28;20703;-68
2023/02/23 00:09:09;;;;;;;23.13;14.80;;;;;;;7.52;100.00;101234.16;4988190;28;20284;-69
2023/02/23 00:11:35;;;;;;;26.57;16.03;;;;;;;7.51;100.00;101232.41;4988404;28;20214;-69
2023/02/23 00:14:01;;;;;;;26.03;15.60;;;;;;;7.56;100.00;101230.06;4989136;28;20195;-67
2023/02/23 00:16:26;;;;;;;27.07;16.60;;;;;;;7.55;100.00;101229.16;4989608;28;20187;-68
2023/02/23 00:18:54;;;;;;;24.77;15.70;;;;;;;7.53;100.00;101228.25;4988003;28;20191;-68
2023/02/23 00:21:28;;;;;;;26.53;15.10;;;;;;;7.50;100.00;101233.22;4987697;28;20223;-69
2023/02/23 00:23:57;;;;;;;26.30;15.37;;;;;;;7.48;100.00;101231.44;4984477;28;20187;-67
2023/02/23 00:26:28;;;;;;;25.30;14.90;;;;;;;7.45;100.00;101227.09;4986433;28;20187;-68
2023/02/23 00:28:53;;;;;;;26.33;16.43;;;;;;;7.47;100.00;101229.72;4988095;28;20188;-69
2023/02/23 00:31:24;;;;;;;24.33;15.27;;;;;;;7.44;100.00;101230.47;4971235;28;20672;-68
2023/02/23 00:33:52;;;;;;;26.50;15.73;;;;;;;7.43;100.00;101225.31;4988198;28;20191;-69
2023/02/23 00:36:20;;;;;;;25.97;15.07;;;;;;;7.44;100.00;101221.94;4987327;28;20183;-69
2023/02/23 00:38:46;;;;;;;25.13;16.70;;;;;;;7.44;100.00;101222.81;4988489;28;20219;-67
2023/02/23 00:41:18;;;;;;;22.83;15.27;;;;;;;7.44;100.00;101227.03;4983350;28;20224;-67
2023/02/23 00:43:46;;;;;;;27.20;15.27;;;;;;;7.43;100.00;101220.22;4985387;28;20572;-67
2023/02/23 00:46:16;;;;;;;28.33;15.40;;;;;;;7.49;100.00;101221.31;4987785;28;20660;-69
2023/02/23 00:48:44;;;;;;;27.57;17.27;;;;;;;7.60;100.00;101224.25;4985561;28;20279;-68
2023/02/23 00:51:10;;;;;;;31.07;17.13;;;;;;;7.59;100.00;101220.84;4987860;28;20204;-68
2023/02/23 00:53:35;;;;;;;27.20;16.97;;;;;;;7.60;100.00;101224.25;4987382;28;20183;-69
2023/02/23 00:56:05;;;;;;;26.03;16.23;;;;;;;7.64;100.00;101226.97;4982837;28;20194;-68
2023/02/23 00:58:31;;;;;;;26.07;17.00;;;;;;;7.64;100.00;101219.31;4987183;28;20192;-69
2023/02/23 01:01:00;;;;;;;27.90;17.03;;;;;;;7.65;100.00;101225.28;4988067;28;20246;-68
2023/02/23 01:03:26;;;;;;;31.70;16.70;;;;;;;7.66;100.00;101222.81;4986634;28;20533;-68
2023/02/23 01:05:54;;;;;;;29.77;16.97;;;;;;;7.67;100.00;101222.00;4986331;28;20179;-68
2023/02/23 01:08:21;;;;;;;29.73;16.43;;;;;;;7.67;100.00;101226.22;4986534;28;20200;-69
2023/02/23 01:10:51;;;;;;;29.87;16.47;;;;;;;7.66;100.00;101224.47;4986037;28;20219;-69
2023/02/23 01:13:19;;;;;;;29.73;16.27;;;;;;;7.65;100.00;101220.19;4986323;28;20280;-69
2023/02/23 01:15:46;;;;;;;27.20;16.60;;;;;;;7.66;100.00;101225.34;4985887;28;20191;-68
2023/02/23 01:18:13;;;;;;;29.87;17.23;;;;;;;7.66;100.00;101227.03;4986186;28;20186;-69
2023/02/23 01:20:40;;;;;;;27.70;15.17;;;;;;;7.66;100.00;101211.75;4985911;28;20259;-70
2023/02/23 01:23:07;;;;;;;27.03;17.03;;;;;;;7.67;100.00;101219.44;4986920;28;20200;-68
2023/02/23 01:25:33;;;;;;;29.17;16.77;;;;;;;7.64;100.00;101216.78;4983507;28;20188;-69
2023/02/23 01:27:59;;;;;;;30.33;16.43;;;;;;;7.65;100.00;101220.19;4975381;28;20192;-69
2023/02/23 01:30:25;;;;;;;29.47;16.73;;;;;;;7.64;100.00;101215.91;4980401;28;20196;-68
2023/02/23 01:32:51;;;;;;;25.70;16.73;;;;;;;7.63;100.00;101212.50;4993116;28;20652;-69
2023/02/23 01:35:19;;;;;;;32.37;16.77;;;;;;;7.62;100.00;101205.66;4979279;28;20267;-68
2023/02/23 01:37:44;;;;;;;33.03;16.33;;;;;;;7.63;100.00;101216.72;4993624;28;20189;-67
2023/02/23 01:40:13;;;;;;;26.40;15.30;;;;;;;7.61;100.00;101218.34;4980412;28;20208;-69
2023/02/23 01:42:41;;;;;;;26.87;15.53;;;;;;;7.59;100.00;101214.84;4977835;28;20210;-68
2023/02/23 01:45:33;;;;;;;29.30;15.00;;;;;;;7.57;100.00;101209.72;4986058;28;20184;-68
2023/02/23 01:48:11;;;;;;;28.73;15.53;;;;;;;7.55;100.00;101208.78;4992921;28;20199;-68
2023/02/23 01:50:47;;;;;;;27.67;14.47;;;;;;;7.54;100.00;101209.59;4990794;28;20188;-69
2023/02/23 01:53:14;;;;;;;28.07;16.10;;;;;;;7.56;100.00;101214.75;4992029;28;20274;-68
2023/02/23 01:55:41;;;;;;;26.87;15.57;;;;;;;7.54;100.00;101208.72;4989725;28;20218;-68
2023/02/23 01:58:15;;;;;;;28.87;15.30;;;;;;;7.52;100.00;101206.16;4993179;28;20188;-69
2023/02/23 02:00:48;;;;;;;28.87;15.07;;;;;;;7.52;100.00;101213.78;4992004;28;20256;-69
2023/02/23 02:03:25;;;;;;;30.57;16.13;;;;;;;7.52;100.00;101218.88;4992015;28;20209;-67
2023/02/23 02:05:52;;;;;;;25.30;15.10;;;;;;;7.49;100.00;101208.56;4986141;28;20602;-69
2023/02/23 02:08:22;;;;;;;32.00;16.27;;;;;;;7.48;100.00;101209.38;4990462;28;20721;-69
2023/02/23 02:10:54;;;;;;;25.43;14.93;;;;;;;7.48;100.00;101201.75;4987020;28;20632;-68
2023/02/23 02:13:24;;;;;;;31.63;15.60;;;;;;;7.47;100.00;101206.78;4991694;28;20207;-70
2023/02/23 02:15:53;;;;;;;26.57;14.77;;;;;;;7.46;100.00;101203.34;4988107;28;20361;-70
2023/02/23 02:18:42;;;;;;;29.30;15.60;;;;;;;7.48;100.00;101205.97;4992793;28;20333;-69
2023/02/23 02:21:59;;;;;;;30.67;14.87;;;;;;;7.43;100.00;101208.34;4983665;28;20978;-69
2023/02/23 02:25:02;;;;;;;29.57;15.37;;;;;;;7.41;100.00;101194.66;4987613;28;20549;-67
2023/02/23 02:27:49;;;;;;;26.70;14.33;;;;;;;7.35;100.00;101202.09;4979277;28;20672;-69
2023/02/23 02:30:41;;;;;;;29.83;14.83;;;;;;;7.33;100.00;101198.59;4983396;28;20216;-69
2023/02/23 02:33:36;;;;;;;26.27;15.17;;;;;;;7.32;100.00;101199.41;4993059;28;20652;-69
2023/02/23 02:36:23;;;;;;;27.20;14.57;;;;;;;7.29;100.00;101199.31;5001679;28;20633;-70
2023/02/23 02:38:55;;;;;;;29.83;14.60;;;;;;;7.25;100.00;101200.00;4988685;28;20206;-66
2023/02/23 02:41:28;;;;;;;26.87;14.83;;;;;;;7.22;100.00;101194.78;4968994;28;20303;-70
2023/02/23 02:43:58;;;;;;;27.10;13.70;;;;;;;7.21;100.00;101190.50;4994774;28;20187;-68
2023/02/23 02:46:37;;;;;;;22.97;13.57;;;;;;;7.18;100.00;101194.63;4983298;28;20192;-68
2023/02/23 02:49:13;;;;;;;24.17;13.97;;;;;;;7.17;100.00;101197.97;4992476;28;20214;-69
2023/02/23 02:52:09;;;;;;;29.97;14.27;;;;;;;7.13;100.00;101196.97;4988995;28;20215;-70
2023/02/23 02:54:58;;;;;;;32.43;14.33;;;;;;;7.07;100.00;101201.84;4992717;28;20191;-69
2023/02/23 02:57:26;;;;;;;22.17;13.10;;;;;;;7.04;100.00;101196.63;4989820;28;20282;-70
2023/02/23 04:17:38;;;;;;;26.70;13.97;;;;;;;7.00;100.00;101197.31;4986611;28;20543;-69
2023/02/23 04:20:05;;;;;;;28.47;14.90;;;;;;;6.99;100.00;101198.13;4989448;28;20219;-67
2023/02/23 04:22:31;;;;;;;40.83;14.17;;;;;;;6.99;100.00;101197.25;4983271;28;20216;-69
2023/02/23 04:24:57;;;;;;;29.50;15.10;;;;;;;7.01;100.00;101199.03;4990917;28;20240;-68
2023/02/23 04:27:22;;;;;;;32.17;15.03;;;;;;;7.03;100.00;101202.53;4985577;28;20701;-67
2023/02/23 04:29:47;;;;;;;34.27;16.33;;;;;;;7.06;100.00;101201.78;4989845;28;20241;-69
2023/02/23 04:32:16;;;;;;;39.97;17.20;;;;;;;7.07;100.00;101194.22;4986236;28;20219;-68
2023/02/23 04:34:42;;;;;;;35.30;17.57;;;;;;;7.07;100.00;101198.41;4991327;28;20238;-68
2023/02/23 04:37:08;;;;;;;40.93;17.47;;;;;;;7.07;100.00;101203.50;4985951;28;20640;-70
2023/02/23 04:39:33;;;;;;;35.70;17.90;;;;;;;7.08;100.00;101205.25;4973047;28;20315;-69
2023/02/23 04:41:59;;;;;;;41.33;19.00;;;;;;;7.07;100.00;101199.31;4989079;28;20349;-66
2023/02/23 04:44:24;;;;;;;49.47;20.50;;;;;;;7.07;100.00;101200.97;4987833;28;20175;-68
2023/02/23 04:46:50;;;;;;;42.83;20.43;;;;;;;7.07;100.00;101190.78;4991375;28;20187;-69
2023/02/23 04:49:15;;;;;;;46.47;20.57;;;;;;;7.06;100.00;101197.56;4986880;28;20187;-67
2023/02/23 04:51:40;;;;;;;48.30;21.27;;;;;;;7.07;100.00;101189.13;4993495;28;20222;-70
2023/02/23 04:54:07;;;;;;;50.37;21.97;;;;;;;7.08;100.00;101189.97;4981661;28;20274;-69
2023/02/23 04:56:32;;;;;;;47.20;21.47;;;;;;;7.05;100.00;101190.72;4980179;28;20187;-71
2023/02/23 04:58:57;;;;;;;59.27;23.13;;;;;;;6.99;100.00;101192.16;4981261;28;20214;-68
2023/02/23 05:01:23;;;;;;;53.90;23.00;;;;;;;6.99;100.00;101185.41;4989622;28;20238;-69
2023/02/23 05:03:49;;;;;;;54.40;21.60;;;;;;;7.00;100.00;101188.81;4985100;28;20184;-69
2023/02/23 05:06:17;;;;;;;54.20;23.50;;;;;;;7.00;100.00;101192.22;4985771;28;20545;-67
2023/02/23 05:08:44;;;;;;;61.47;23.63;;;;;;;7.01;100.00;101186.31;4983198;28;20719;-69
2023/02/23 05:11:09;;;;;;;70.50;24.67;;;;;;;7.01;100.00;101186.31;4989242;28;20215;-69
2023/02/23 05:13:35;;;;;;;61.77;24.60;;;;;;;7.03;100.00;101184.72;4985369;28;20211;-71
2023/02/23 05:16:00;;;;;;;59.83;23.47;;;;;;;7.04;100.00;101181.34;4984084;28;20184;-67
2023/02/23 05:18:26;;;;;;;56.40;22.70;;;;;;;7.05;100.00;101182.22;4985987;28;20709;-70
2023/02/23 05:20:59;;;;;;;51.57;22.83;;;;;;;7.03;100.00;101186.38;5000512;28;20234;-68
2023/02/23 05:23:25;;;;;;;63.90;24.70;;;;;;;7.03;100.00;101192.34;4989558;28;20203;-68
2023/02/23 05:25:50;;;;;;;64.80;24.33;;;;;;;7.06;100.00;101191.59;4992953;28;20187;-71
2023/02/23 05:28:16;;;;;;;75.17;26.97;;;;;;;7.05;100.00;101189.88;4987726;28;20205;-69
2023/02/23 05:30:41;;;;;;;69.77;25.60;;;;;;;7.04;100.00;101199.16;4994924;28;20242;-68
2023/02/23 05:33:06;;;;;;;70.47;25.77;;;;;;;7.04;100.00;101200.88;4985991;28;20200;-69
2023/02/23 05:35:32;;;;;;;75.37;25.80;;;;;;;7.03;100.00;101194.00;4992441;28;20199;-68
2023/02/23 05:37:57;;;;;;;66.40;26.50;;;;;;;7.03;100.00;101194.91;4992863;28;20192;-67
2023/02/23 05:40:23;;;;;;;77.93;26.60;;;;;;;7.06;100.00;101196.69;4989898;28;20302;-69
2023/02/23 05:42:48;;;;;;;85.30;27.83;;;;;;;7.03;100.00;101194.91;4980381;28;20220;-69
2023/02/23 05:45:14;;;;;;;79.57;28.80;;;;;;;7.02;100.00;101200.81;4989924;28;20286;-68
2023/02/23 05:47:39;;;;;;;79.10;30.37;;;;;;;6.97;100.00;101207.41;4993414;28;20202;-69
2023/02/23 05:50:07;;;;;;;83.73;28.27;;;;;;;6.98;100.00;101196.41;4984404;28;20200;-70
2023/02/23 05:52:37;;;;;;;73.53;31.13;;;;;;;6.99;100.00;101190.50;4993478;28;20247;-69
2023/02/23 05:55:03;;;;;;;79.57;31.03;;;;;;;7.01;100.00;101195.66;4984327;28;20188;-68
2023/02/23 05:57:29;;;;;;;95.00;31.03;;;;;;;6.96;100.00;101202.25;4992757;28;20300;-67
2023/02/23 05:59:54;;;;;;;97.40;31.80;;;;;;;6.97;100.00;101209.06;4986067;28;20207;-68
2023/02/23 06:02:20;;;;;;;77.07;32.50;;;;;;;6.95;100.00;101211.53;4986051;28;20931;-67
2023/02/23 06:04:45;;;;;;;82.27;33.07;;;;;;;6.96;100.00;101204.78;4983650;28;20822;-69
2023/02/23 06:07:11;;;;;;;103.03;32.80;;;;;;;6.94;100.00;101201.28;4980867;28;20242;-68
2023/02/23 06:09:36;;;;;;;92.93;32.60;;;;;;;6.94;100.00;101206.38;4982697;28;20184;-70
2023/02/23 06:12:02;;;;;;;94.43;32.77;;;;;;;6.93;100.00;101212.28;4981694;28;20223;-71
2023/02/23 06:14:27;;;;;;;75.60;29.93;;;;;;;6.89;100.00;101212.97;4981452;28;20196;-70
2023/02/23 06:16:53;;;;;;;83.30;31.77;;;;;;;6.87;100.00;101210.34;4981206;28;20298;-69
2023/02/23 06:19:18;;;;;;;69.13;30.23;;;;;;;6.89;100.00;101206.22;4980896;28;20636;-65
2023/02/23 06:21:44;;;;;;;71.60;29.70;;;;;;;6.92;100.00;101208.91;4981332;28;20215;-71
2023/02/23 06:24:11;;;;;;;74.00;29.30;;;;;;;6.93;100.00;101215.72;4983147;28;20202;-69
2023/02/23 06:26:37;;;;;;;72.50;32.20;;;;;;;6.92;100.00;101215.66;4980293;28;20238;-69
2023/02/23 06:29:02;;;;;;;80.23;31.97;;;;;;;6.88;100.00;101214.66;4984278;28;20649;-69
2023/02/23 06:31:28;;;;;;;77.90;31.70;;;;;;;6.83;100.00;101216.16;4979212;28;20580;-71
2023/02/23 06:33:54;;;;;;;74.27;31.23;;;;;;;6.87;100.00;101215.44;4986305;28;20198;-70
2023/02/23 06:36:21;;;;;;;70.47;31.30;;;;;;;6.87;100.00;101218.00;4978992;28;20782;-68
2023/02/23 06:38:47;;;;;;;74.57;30.07;;;;;;;6.91;100.00;101227.50;4987628;28;20204;-68
2023/02/23 06:41:12;;;;;;;66.00;30.03;;;;;;;6.88;100.00;101224.84;4980398;28;20224;-68
2023/02/23 06:43:38;;;;;;;74.80;29.37;;;;;;;6.89;100.00;101221.50;4983186;28;20194;-68
2023/02/23 06:46:03;;;;;;;70.93;29.40;;;;;;;6.89;100.00;101229.13;4980210;28;20196;-69
2023/02/23 06:48:29;;;;;;;65.73;29.77;;;;;;;6.92;100.00;101231.81;4982441;28;20572;-68
2023/02/23 06:50:57;;;;;;;64.77;27.87;;;;;;;6.92;100.00;101241.09;4980756;28;20208;-69
2023/02/23 06:53:23;;;;;;;71.73;30.00;;;;;;;6.88;100.00;101236.69;4982901;28;20184;-70
2023/02/23 06:55:49;;;;;;;72.80;29.30;;;;;;;6.87;100.00;101243.44;4978484;28;20215;-68
2023/02/23 06:58:14;;;;;;;73.23;30.00;;;;;;;6.87;100.00;101242.59;4981451;28;20184;-69
2023/02/23 07:00:42;;;;;;;76.63;31.40;;;;;;;6.88;100.00;101244.31;4981255;28;22251;-67
2023/02/23 07:03:08;;;;;;;79.00;31.57;;;;;;;6.88;100.00;101250.31;4984439;28;20314;-69
2023/02/23 07:05:34;;;;;;;82.63;30.77;;;;;;;6.88;100.00;101250.31;4981366;28;20189;-68
2023/02/23 07:07:59;;;;;;;70.80;28.77;;;;;;;6.89;100.00;101252.03;4984134;28;20216;-67
2023/02/23 07:10:25;;;;;;;81.33;30.63;;;;;;;6.84;100.00;101258.63;4981752;28;20188;-68
2023/02/23 07:12:52;;;;;;;91.77;31.57;;;;;;;6.76;100.00;101257.41;4983045;28;20220;-68
2023/02/23 07:15:19;;;;;;;83.70;33.13;;;;;;;6.82;100.00;101267.00;4981352;28;20192;-67
2023/02/23 07:17:47;;;;;;;92.83;32.90;;;;;;;6.78;100.00;101272.75;4982744;28;20188;-67
2023/02/23 07:20:14;;;;;;;96.83;33.80;;;;;;;6.78;100.00;101271.06;4982939;28;20214;-67
2023/02/23 07:22:40;;;;;;;90.23;33.33;;;;;;;6.82;100.00;101282.25;4980916;28;20318;-69
2023/02/23 07:25:07;;;;;;;88.20;32.73;;;;;;;6.83;100.00;101277.25;4984259;28;20271;-69
2023/02/23 07:27:33;;;;;;;91.20;34.07;;;;;;;6.83;100.00;101276.34;4982273;28;20275;-68
2023/02/23 07:29:58;;;;;;;81.03;33.70;;;;;;;6.84;100.00;101273.88;4983320;28;20262;-69
2023/02/23 07:32:24;;;;;;;89.13;34.50;;;;;;;6.86;100.00;101272.25;4982690;28;20231;-69
2023/02/23 07:34:49;;;;;;;89.00;35.63;;;;;;;6.87;100.00;101275.69;4986563;28;20188;-70
2023/02/23 07:37:16;;;;;;;89.40;33.17;;;;;;;6.89;100.00;101277.47;4982222;28;20190;-67
2023/02/23 07:39:41;;;;;;;96.20;35.97;;;;;;;6.93;100.00;101270.84;4982864;28;20239;-66
2023/02/23 07:42:07;;;;;;;86.07;35.30;;;;;;;7.01;100.00;101279.66;4981573;28;20235;-69
2023/02/23 07:44:32;;;;;;;75.87;32.57;;;;;;;7.04;100.00;101278.09;4984197;28;20284;-68
2023/02/23 07:46:57;;;;;;;80.77;32.77;;;;;;;7.09;100.00;101280.84;4981608;28;20184;-68
2023/02/23 07:49:24;;;;;;;81.93;33.97;;;;;;;7.11;100.00;101276.66;4983174;28;20690;-71
2023/02/23 07:51:49;;;;;;;82.07;32.47;;;;;;;7.15;100.00;101281.06;4981978;28;20215;-70
2023/02/23 07:54:15;;;;;;;77.00;32.00;;;;;;;7.17;100.00;101282.88;4982976;28;20190;-69
2023/02/23 07:56:41;;;;;;;79.00;34.00;;;;;;;7.18;100.00;101279.50;4982855;28;20648;-69
2023/02/23 07:59:06;;;;;;;79.23;34.33;;;;;;;7.23;100.00;101288.19;4984656;28;20187;-71
2023/02/23 08:01:32;;;;;;;75.53;33.07;;;;;;;7.28;100.00;101283.31;4982895;28;20200;-70
2023/02/23 08:03:57;;;;;;;79.50;33.90;;;;;;;7.29;100.00;101288.47;4984373;28;20306;-72
2023/02/23 08:06:23;;;;;;;81.90;33.80;;;;;;;7.30;100.00;101284.22;4983090;28;20192;-71
2023/02/23 08:08:48;;;;;;;79.70;34.03;;;;;;;7.32;100.00;101286.00;4983847;28;20196;-69
2023/02/23 08:11:14;;;;;;;75.93;34.00;;;;;;;7.36;100.00;101292.09;4984159;28;20204;-70
2023/02/23 08:13:40;;;;;;;83.97;34.83;;;;;;;7.38;100.00;101278.59;4983246;28;20281;-71
2023/02/23 08:16:05;;;;;;;80.67;35.60;;;;;;;7.42;100.00;101277.91;4985130;28;20184;-71
2023/02/23 08:18:31;;;;;;;83.13;36.00;;;;;;;7.46;100.00;101278.94;4983316;28;20563;-68
2023/02/23 08:21:01;;;;;;;76.53;33.97;;;;;;;7.49;100.00;101290.09;4985732;28;20222;-67
2023/02/23 08:23:29;;;;;;;84.30;35.43;;;;;;;7.53;100.00;101291.06;4983119;28;20192;-72
2023/02/23 08:25:55;;;;;;;80.17;35.10;;;;;;;7.53;100.00;101289.41;4986780;28;20250;-70
2023/02/23 08:28:21;;;;;;;81.87;37.00;;;;;;;7.58;100.00;101287.91;4982866;28;20195;-69
2023/02/23 08:30:47;;;;;;;78.03;35.17;;;;;;;7.60;100.00;101286.25;4988526;28;20330;-71
2023/02/23 08:33:12;;;;;;;76.27;34.73;;;;;;;7.61;100.00;101293.09;4978121;28;20609;-70
2023/02/23 08:35:37;;;;;;;75.50;34.50;;;;;;;7.62;100.00;101296.53;4985592;28;20657;-68
2023/02/23 08:38:03;;;;;;;72.03;34.37;;;;;;;7.66;100.00;101299.25;4982174;28;20195;-71
2023/02/23 08:40:28;;;;;;;79.70;36.70;;;;;;;7.68;100.00;101297.63;4984755;28;20624;-71
2023/02/23 08:42:54;;;;;;;75.13;34.90;;;;;;;7.71;100.00;101297.75;4981782;28;20271;-71
2023/02/23 08:45:19;;;;;;;80.80;36.57;;;;;;;7.74;100.00;101307.19;4985373;28;20291;-68
2023/02/23 08:47:45;;;;;;;76.97;34.47;;;;;;;7.73;100.00;101298.66;4982569;28;20180;-70
2023/02/23 08:50:12;;;;;;;74.37;35.20;;;;;;;7.76;100.00;101298.78;4986018;28;20697;-71
2023/02/23 08:52:38;;;;;;;81.30;35.10;;;;;;;7.78;100.00;101303.94;4982330;28;20222;-70
2023/02/23 08:55:05;;;;;;;80.40;36.00;;;;;;;7.78;100.00;101299.69;4989471;28;20192;-68
2023/02/23 08:57:34;;;;;;;71.03;34.23;;;;;;;7.85;100.00;101298.25;4987903;28;20192;-70
2023/02/23 09:00:00;;;;;;;73.43;35.63;;;;;;;7.89;100.00;101301.00;4990859;28;20299;-70
2023/02/23 09:02:26;;;;;;;83.67;38.37;;;;;;;7.90;100.00;101297.63;4988355;28;20217;-66
2023/02/23 09:04:52;;;;;;;84.80;36.37;;;;;;;7.93;100.00;101299.41;4988876;28;20212;-71
2023/02/23 09:07:24;;;;;;;79.63;36.87;;;;;;;7.92;100.00;101298.53;4987476;28;20202;-70
2023/02/23 09:09:56;;;;;;;78.67;35.17;;;;;;;7.95;100.00;101297.78;4985443;28;20658;-71
2023/02/23 09:12:22;;;;;;;85.97;38.43;;;;;;;7.96;100.00;101296.97;4988158;28;20229;-69
2023/02/23 09:14:47;;;;;;;86.30;38.97;;;;;;;7.96;100.00;101290.19;4987419;28;20285;-69
2023/02/23 09:17:13;;;;;;;84.10;37.73;;;;;;;7.96;100.00;101292.75;4987590;28;20189;-70
2023/02/23 09:19:38;;;;;;;79.23;37.33;;;;;;;7.97;100.00;101296.19;4989770;28;20663;-70
2023/02/23 09:22:04;;;;;;;84.47;37.70;;;;;;;7.99;100.00;101297.97;4986391;28;20271;-68
2023/02/23 09:24:29;;;;;;;78.07;38.40;;;;;;;8.00;100.00;101301.38;4990096;28;20192;-66
2023/02/23 09:26:55;;;;;;;83.90;39.20;;;;;;;8.02;100.00;101300.59;4987013;28;20643;-71
2023/02/23 09:29:21;;;;;;;78.70;36.83;;;;;;;8.03;100.00;101306.59;4988508;28;20274;-71
2023/02/23 09:31:47;;;;;;;85.13;38.27;;;;;;;8.04;100.00;101305.78;4991352;28;20638;-70
2023/02/23 09:34:12;;;;;;;82.17;37.87;;;;;;;8.04;100.00;101304.09;4984752;28;20199;-69
2023/02/23 09:36:38;;;;;;;79.23;36.30;;;;;;;8.07;100.00;101298.25;4990107;28;20266;-70
2023/02/23 09:39:03;;;;;;;78.87;36.83;;;;;;;8.06;100.00;101296.50;4986577;28;20263;-69
2023/02/23 09:41:54;;;;;;;76.20;35.60;;;;;;;8.08;100.00;101299.97;4990731;28;20258;-68
2023/02/23 09:44:26;;;;;;;77.67;36.20;;;;;;;8.11;100.00;101306.03;4988246;28;20207;-71
2023/02/23 09:47:35;;;;;;;66.37;33.83;;;;;;;8.14;100.00;101307.84;4988283;28;20283;-70
2023/02/23 09:50:11;;;;;;;74.40;34.07;;;;;;;8.16;100.00;101312.19;5002436;28;20679;-70
2023/02/23 09:52:45;;;;;;;77.47;34.50;;;;;;;8.16;100.00;101309.63;4990743;28;20235;-71
2023/02/23 09:55:14;;;;;;;76.67;36.33;;;;;;;8.20;100.00;101313.19;4989145;28;20723;-70
2023/02/23 09:57:44;;;;;;;73.50;35.87;;;;;;;8.15;100.00;101317.25;4990428;28;20191;-69
2023/02/23 10:00:18;;;;;;;74.53;35.20;;;;;;;8.16;100.00;101313.88;4989073;28;20246;-69
2023/02/23 10:03:09;;;;;;;72.80;35.73;;;;;;;8.17;100.00;101315.59;4990069;28;20582;-70
2023/02/23 10:05:42;;;;;;;74.90;34.20;;;;;;;8.14;100.00;101323.13;5000214;28;20217;-70
2023/02/23 10:08:35;;;;;;;72.70;34.47;;;;;;;8.16;100.00;101327.47;4986802;28;20276;-70
2023/02/23 10:11:20;;;;;;;67.07;32.73;;;;;;;8.15;100.00;101324.91;4987537;28;20223;-70
2023/02/23 10:13:57;;;;;;;58.17;30.97;;;;;;;8.17;100.00;101320.72;4985175;28;20191;-71
2023/02/23 10:16:40;;;;;;;60.30;31.20;;;;;;;8.19;100.00;101329.28;4999308;28;20197;-68
2023/02/23 10:19:26;;;;;;;63.73;31.73;;;;;;;8.21;100.00;101325.16;4984162;28;20188;-70
2023/02/23 10:21:56;;;;;;;55.43;28.97;;;;;;;8.22;100.00;101325.22;4991141;28;20215;-71
2023/02/23 10:24:48;;;;;;;55.57;27.73;;;;;;;8.23;100.00;101321.84;4986823;28;20192;-71
2023/02/23 10:27:22;;;;;;;50.43;26.83;;;;;;;8.27;100.00;101328.78;4989885;28;20208;-69
2023/02/23 10:29:54;;;;;;;47.07;26.53;;;;;;;8.28;100.00;101332.19;4985143;28;20244;-70
2023/02/23 10:32:47;;;;;;;49.13;27.10;;;;;;;8.30;100.00;101317.84;4991399;28;20219;-70
2023/02/23 10:35:16;;;;;;;56.07;28.23;;;;;;;8.29;100.00;101333.97;4983986;28;20185;-71
2023/02/23 10:37:41;;;;;;;54.50;28.80;;;;;;;8.27;100.00;101326.25;4993830;28;20684;-72
2023/02/23 10:40:14;;;;;;;53.70;30.23;;;;;;;8.28;100.00;101327.09;4986711;28;20258;-70
2023/02/23 10:42:40;;;;;;;61.10;30.40;;;;;;;8.32;100.00;101329.81;4992039;28;20302;-69
2023/02/23 10:45:21;;;;;;;57.53;31.10;;;;;;;8.33;100.00;101328.13;4983774;28;20267;-71
2023/02/23 10:47:57;;;;;;;57.47;30.57;;;;;;;8.36;100.00;101323.13;4988119;28;20602;-70
2023/02/23 10:50:25;;;;;;;59.77;31.30;;;;;;;8.36;100.00;101329.13;4987735;28;20184;-69
2023/02/23 10:52:57;;;;;;;64.27;33.77;;;;;;;8.35;100.00;101332.50;4990317;28;20203;-69
2023/02/23 10:55:31;;;;;;;67.90;34.40;;;;;;;8.32;100.00;101331.50;4986133;28;20192;-68
2023/02/23 10:58:03;;;;;;;121.10;45.00;;;;;;;8.28;100.00;101329.66;4989825;28;20704;-70
2023/02/23 11:00:32;;;;;;;133.03;49.93;;;;;;;8.22;100.00;101327.75;4986741;28;20216;-68
2023/02/23 11:03:00;;;;;;;152.80;52.07;;;;;;;8.14;100.00;101331.66;4988568;28;20192;-70
2023/02/23 11:05:58;;;;;;;137.07;48.87;;;;;;;8.21;100.00;101331.09;4986748;28;20665;-71
2023/02/23 11:08:34;;;;;;;146.27;48.40;;;;;;;8.22;100.00;101329.44;4999328;28;20207;-70
2023/02/23 11:11:15;;;;;;;130.93;47.07;;;;;;;8.25;100.00;101327.00;4988337;28;20212;-70
2023/02/23 11:13:48;;;;;;;141.93;48.73;;;;;;;8.37;100.00;101324.88;5003434;28;20723;-71
2023/02/23 11:16:27;;;;;;;148.40;48.50;;;;;;;8.42;100.00;101329.34;4989715;28;20234;-70
2023/02/23 11:19:01;;;;;;;126.10;47.77;;;;;;;8.51;100.00;101328.78;4986020;28;20251;-71
2023/02/23 11:21:28;;;;;;;140.63;46.93;;;;;;;8.61;100.00;101324.06;4986896;28;20716;-69
2023/02/23 11:23:58;;;;;;;131.33;47.37;;;;;;;8.69;100.00;101332.84;4986736;28;20465;-71
2023/02/23 11:26:39;;;;;;;126.73;46.33;;;;;;;8.72;100.00;101326.97;4984665;28;20188;-69
2023/02/23 11:29:19;;;;;;;129.00;45.60;;;;;;;8.73;100.00;101324.50;4987227;28;20203;-70
2023/02/23 11:31:51;;;;;;;126.80;45.23;;;;;;;8.76;100.00;101323.72;4987006;28;20206;-69
2023/02/23 11:34:26;;;;;;;122.80;45.00;;;;;;;8.68;100.00;101318.38;4985991;28;20670;-70
2023/02/23 11:37:23;;;;;;;118.20;43.07;;;;;;;8.60;100.00;101316.34;4987486;28;20195;-69
2023/02/23 11:39:54;;;;;;;108.73;40.73;;;;;;;8.53;100.00;101312.69;4981424;28;20571;-71
2023/02/23 11:42:21;;;;;;;119.73;40.80;;;;;;;8.47;100.00;101319.31;4987130;28;20825;-70
2023/02/23 11:45:00;;;;;;;123.67;44.00;;;;;;;8.47;100.00;101316.75;4990918;28;20180;-69
2023/02/23 11:47:26;;;;;;;129.00;45.33;;;;;;;8.52;100.00;101318.63;4989355;28;20278;-69
2023/02/23 11:49:52;;;;;;;128.27;44.93;;;;;;;8.53;100.00;101314.41;4982462;28;20284;-71
2023/02/23 11:52:21;;;;;;;137.37;43.90;;;;;;;8.56;100.00;101312.81;4990225;28;20211;-69
2023/02/23 11:54:56;;;;;;;130.47;44.77;;;;;;;8.51;100.00;101313.47;4987630;28;20223;-70
2023/02/23 11:57:27;;;;;;;133.17;45.43;;;;;;;8.53;100.00;101307.59;4988736;28;20639;-69
2023/02/23 11:59:52;;;;;;;136.53;46.00;;;;;;;8.53;100.00;101310.16;4986377;28;20247;-68
2023/02/23 12:02:24;;;;;;;133.47;46.27;;;;;;;8.53;100.00;101314.41;4988917;28;20242;-69
2023/02/23 12:05:07;;;;;;;139.43;46.07;;;;;;;8.51;100.00;101311.78;4983973;28;20254;-70
2023/02/23 12:08:09;;;;;;;141.50;46.33;;;;;;;8.43;100.00;101308.09;4990935;28;20199;-70
2023/02/23 12:10:42;;;;;;;137.57;45.97;;;;;;;8.39;100.00;101306.25;4987516;28;20199;-69
2023/02/23 12:13:51;;;;;;;137.83;45.80;;;;;;;8.26;100.00;101304.09;4990315;28;20207;-69
2023/02/23 12:16:20;;;;;;;124.93;42.60;;;;;;;8.27;100.00;101307.50;4996379;28;20567;-70
2023/02/23 12:19:01;;;;;;;140.90;45.43;;;;;;;8.30;100.00;101300.81;4991456;28;20197;-70
2023/02/23 12:21:39;;;;;;;130.27;43.97;;;;;;;8.32;100.00;101300.88;4986405;28;20215;-68
2023/02/23 12:24:25;;;;;;;134.63;46.47;;;;;;;8.38;100.00;101301.97;4989608;28;20246;-69
2023/02/23 12:26:57;;;;;;;118.27;40.83;;;;;;;8.40;100.00;101299.47;4989459;28;20203;-69
2023/02/23 12:29:48;;;;;;;118.10;41.70;;;;;;;8.54;100.00;101300.81;4989971;28;20188;-67
2023/02/23 12:32:18;;;;;;;123.47;42.80;;;;;;;8.67;100.00;101298.72;4987431;28;20222;-70
2023/02/23 12:34:48;;;;;;;114.27;39.33;;;;;;;8.78;100.00;101299.97;4985940;28;20187;-70
2023/02/23 12:37:27;;;;;;;109.37;40.67;;;;;;;8.92;100.00;101298.75;4987833;28;20569;-68
2023/02/23 12:40:06;;;;;;;107.83;37.83;;;;;;;8.94;100.00;101301.38;4987480;28;20217;-70